Date,TemperatureHighF,TemperatureAvgF,TemperatureLowF,DewpointHighF,DewpointAvgF,DewpointLowF,HumidityHigh,HumidityAvg,HumidityLow,PressureMaxIn,PressureMinIn,WindSpeedMaxMPH,WindSpeedAvgMPH,GustSpeedMaxMPH,PrecipitationSumIn
2013-1-1,36.1,29.9,18.9,26.1,18.7,6.2,76,63,52,29.91,29.71,12,5,23,0.00
2013-1-2,29.6,18.5,8.6,16.5,8.4,1.1,81,65,54,30.09,29.89,8,3,17,0.00
2013-1-3,24.4,13.4,3.8,10.3,1.1,-6.7,80,59,36,30.13,29.99,6,2,12,0.00
2013-1-4,38.7,26.4,12.0,24.8,18.5,8.0,86,73,56,29.98,29.82,8,2,15,0.00
2013-1-5,40.5,29.4,19.4,25.0,20.7,15.9,87,71,49,30.25,29.84,9,2,20,0.00
2013-1-6,43.6,30.1,19.8,30.3,24.4,16.3,92,80,58,30.22,29.92,6,2,15,0.00
2013-1-7,39.4,28.7,16.8,28.5,21.7,13.9,92,76,49,30.38,29.95,6,2,12,0.00
2013-1-8,45.4,30.7,15.0,31.0,24.2,12.3,90,78,55,30.36,30.26,7,2,15,0.00
2013-1-9,45.6,33.5,19.7,35.5,27.5,17.2,98,79,55,30.38,29.99,7,2,16,0.00
2013-1-10,45.4,38.7,28.5,29.9,25.7,22.8,80,60,46,30.51,30.05,14,5,25,0.00
2013-1-11,37.4,31.3,23.1,32.9,26.6,20.1,90,83,68,30.51,30.19,2,0,5,0.01
2013-1-12,41.7,38.0,35.1,39.5,35.8,32.6,92,91,90,30.21,30.10,1,0,3,0.03
2013-1-13,51.0,45.2,38.8,48.8,43.0,36.7,93,92,91,30.14,29.98,5,2,12,0.00
2013-1-14,60.2,49.5,39.0,51.1,41.7,28.6,91,76,46,30.23,29.86,7,4,17,0.00
2013-1-15,39.7,35.2,29.7,31.4,26.7,24.8,86,72,58,30.30,30.19,4,1,6,0.00
2013-1-16,32.5,31.2,28.8,30.0,27.6,23.6,91,87,70,30.23,29.80,3,0,6,0.13
2013-1-17,40.2,33.0,26.5,32.7,26.2,15.5,91,77,56,30.07,29.82,8,2,17,0.00
2013-1-18,28.9,21.3,16.5,17.1,5.6,-1.6,65,51,37,30.44,30.02,9,3,18,0.00
2013-1-19,47.3,35.6,17.1,32.5,23.9,7.0,79,63,46,30.36,29.88,9,4,20,0.00
2013-1-20,52.4,40.0,26.9,33.5,26.8,11.1,77,60,39,29.91,29.53,12,6,24,0.00
2013-1-21,27.2,23.1,17.7,19.0,11.9,6.7,88,63,45,30.08,29.77,7,2,14,0.02
2013-1-22,22.9,17.9,9.4,18.2,7.0,-1.3,89,64,40,30.07,29.74,10,4,22,0.00
2013-1-23,15.1,8.9,4.2,1.1,-4.5,-8.1,70,54,41,30.14,30.05,9,4,20,0.00
2013-1-24,18.7,9.1,-0.7,-2.3,-6.1,-8.7,74,51,36,30.23,30.07,10,4,23,0.00
2013-1-25,22.4,14.0,6.0,8.4,-3.6,-7.9,70,45,32,30.31,30.07,7,3,14,0.00
2013-1-29,32.1,31.9,31.7,29.7,27.3,-99.9,91,89,90,30.18,30.12,1,0,3,0.00
2013-1-30,59.0,47.4,31.9,56.1,44.9,29.3,93,91,89,30.14,29.43,10,4,25,0.02
2013-1-31,59.8,46.5,29.6,56.9,37.6,17.1,90,72,48,29.57,28.95,16,8,38,0.11